CYZV

Sept-Îles Airport

Sept-Îles, Quebec, Canada
METAR CYZV 140700Z 35003KT 15SM BKN250 M19/M22 A3027 RMK CI7 SLP259
Observed Flight Rules
Dec-14 @ 07:00 UTC (an hour ago) Visual Flight Rules
Wind Visibility Clouds
350° at 3 knots 15 miles
  • Broken at 25,000' AGL
Temperatures Readings
Current -19°C / -2°F
Dewpoint -22°C / -8°F
Humidity 77%
Altimeter 30.27" Hg
Pressure 1025.9 hPa
Elevation 55
METAR CYZV 140700Z 35003KT 15SM BKN250 M19/M22 A3027 RMK CI7 SLP259
Observed Flight Rules
Dec-14 @ 07:00 UTC
(an hour ago)
VFR
Wind Visibility
350° at 3 knots 15 miles
Clouds
  • Broken at 25,000' AGL
Temperature Dewpoint
-19°C / -2°F -22°C / -8°F
Humidity Altimeter Pressure
77% 30.27" Hg 1025.9 hPa